createdAt,value
2019-04-11T00:02:06.698Z,106.97
2019-04-11T00:04:37.990Z,110.42
2019-04-11T00:07:08.996Z,105.92
2019-04-11T00:09:40.874Z,105.03
2019-04-11T00:12:12.461Z,104.78
2019-04-11T00:14:44.183Z,101.50
2019-04-11T00:17:17.426Z,100.60
2019-04-11T00:19:48.512Z,106.37
2019-04-11T00:22:19.525Z,103.90
2019-04-11T00:24:51.271Z,105.85
2019-04-11T00:27:22.313Z,103.42
2019-04-11T00:29:53.411Z,101.78
2019-04-11T00:32:25.396Z,101.75
2019-04-11T00:34:57.400Z,103.27
2019-04-11T00:37:29.352Z,103.25
2019-04-11T00:40:00.386Z,103.60
2019-04-11T00:42:31.508Z,100.45
2019-04-11T00:45:03.345Z,95.53
2019-04-11T00:47:35.239Z,101.87
2019-04-11T00:50:07.504Z,97.70
2019-04-11T00:52:39.166Z,104.45
2019-04-11T00:55:11.186Z,101.30
2019-04-11T00:57:43.165Z,100.67
2019-04-11T01:00:15.182Z,99.00
2019-04-11T01:02:47.403Z,103.90
2019-04-11T01:05:18.472Z,107.78
2019-04-11T01:07:49.428Z,98.60
2019-04-11T01:10:20.408Z,99.90
2019-04-11T01:12:53.204Z,101.97
2019-04-11T01:15:24.748Z,97.80
2019-04-11T01:17:55.989Z,100.18
2019-04-11T01:20:27.232Z,100.35
2019-04-11T01:22:58.447Z,100.62
2019-04-11T01:25:30.588Z,99.72
2019-04-11T01:28:02.614Z,93.45
2019-04-11T01:30:36.680Z,99.80
2019-04-11T01:33:07.755Z,92.88
2019-04-11T01:35:39.807Z,90.67
2019-04-11T01:38:12.388Z,94.92
2019-04-11T01:40:45.656Z,87.00
2019-04-11T01:43:16.733Z,92.37
2019-04-11T01:45:47.757Z,87.20
2019-04-11T01:48:33.331Z,87.40
2019-04-11T01:51:05.301Z,86.45
2019-04-11T01:53:37.304Z,91.97
2019-04-11T01:56:09.372Z,92.00
2019-04-11T01:58:40.646Z,82.17
2019-04-11T02:01:18.830Z,88.55
2019-04-11T02:03:57.364Z,85.85
2019-04-11T02:06:28.304Z,90.65
2019-04-11T02:08:59.798Z,86.55
2019-04-11T02:11:31.758Z,83.95
2019-04-11T02:14:10.666Z,81.47
2019-04-11T02:16:36.846Z,82.42
2019-04-11T02:19:08.015Z,81.67
2019-04-11T02:21:40.054Z,83.75
2019-04-11T02:24:21.569Z,83.85
2019-04-11T02:27:10.605Z,83.12
2019-04-11T02:29:42.567Z,80.40
2019-04-11T02:32:13.856Z,84.50
2019-04-11T02:34:46.078Z,82.00
2019-04-11T02:37:17.568Z,78.78
2019-04-11T02:39:49.379Z,68.52
2019-04-11T02:42:21.418Z,67.92
2019-04-11T02:45:09.150Z,54.65
2019-04-11T02:47:30.814Z,55.00
2019-04-11T02:49:59.277Z,53.02
2019-04-11T02:52:31.201Z,48.92
2019-04-11T02:55:03.405Z,44.27
2019-04-11T02:57:36.273Z,43.95
2019-04-11T03:00:08.538Z,44.80
2019-04-11T03:02:42.334Z,44.60
2019-04-11T03:05:13.826Z,40.67
2019-04-11T03:07:46.326Z,40.05
2019-04-11T03:10:18.857Z,41.33
2019-04-11T03:12:52.690Z,40.83
2019-04-11T03:15:37.529Z,39.18
2019-04-11T03:18:01.861Z,40.70
2019-04-11T03:20:37.145Z,41.37
2019-04-11T03:23:05.703Z,40.08
2019-04-11T03:25:36.384Z,36.48
2019-04-11T03:28:12.097Z,39.08
2019-04-11T03:31:01.296Z,38.15
2019-04-11T03:38:42.638Z,39.60
2019-04-11T03:41:14.218Z,35.90
2019-04-11T03:43:36.544Z,35.25
2019-04-11T03:46:15.992Z,34.25
2019-04-11T03:48:45.512Z,32.75
2019-04-11T03:51:04.492Z,33.28
2019-04-11T03:53:37.074Z,31.42
2019-04-11T03:56:09.747Z,33.00
2019-04-11T03:58:41.795Z,33.98
2019-04-11T04:01:15.885Z,30.23
2019-04-11T04:03:49.005Z,32.25
2019-04-11T04:06:21.041Z,33.08
2019-04-11T04:08:53.193Z,30.27
2019-04-11T04:11:27.469Z,61.83
2019-04-11T04:14:10.542Z,31.37
2019-04-11T04:17:01.598Z,30.10
2019-04-11T04:19:32.638Z,30.12
2019-04-11T04:22:20.741Z,25.75
2019-04-11T04:24:53.870Z,28.00
2019-04-11T04:27:27.935Z,27.13
2019-04-11T04:30:00.542Z,25.25
2019-04-11T04:32:32.430Z,24.52
2019-04-11T04:35:06.979Z,24.05
2019-04-11T04:37:38.793Z,35.90
2019-04-11T04:40:28.020Z,25.50
2019-04-11T04:42:47.885Z,25.00
2019-04-11T04:45:16.363Z,23.75
2019-04-11T04:47:53.982Z,25.40
2019-04-11T04:50:20.199Z,25.15
2019-04-11T04:52:51.641Z,23.38
2019-04-11T04:55:25.753Z,23.42
2019-04-11T04:57:57.686Z,26.60
2019-04-11T05:00:30.279Z,23.45
2019-04-11T05:03:02.385Z,24.27
2019-04-11T05:05:33.826Z,24.15
2019-04-11T05:08:06.115Z,25.32
2019-04-11T05:10:38.150Z,23.95
2019-04-11T05:13:09.905Z,26.07
2019-04-11T05:15:42.159Z,24.87
2019-04-11T05:18:15.637Z,25.02
2019-04-11T05:20:46.382Z,24.57
2019-04-11T05:23:17.404Z,23.87
2019-04-11T05:25:48.341Z,23.38
2019-04-11T05:28:19.314Z,23.92
2019-04-11T05:30:51.248Z,24.35
2019-04-11T05:33:23.301Z,24.98
2019-04-11T05:35:54.284Z,23.67
2019-04-11T05:38:25.381Z,24.52
2019-04-11T05:40:56.649Z,24.45
2019-04-11T05:43:31.473Z,23.30
2019-04-11T05:46:00.382Z,21.80
2019-04-11T05:48:34.759Z,28.73
2019-04-11T05:51:06.835Z,23.30
2019-04-11T05:53:38.659Z,24.18
2019-04-11T05:56:09.769Z,22.52
2019-04-11T05:58:44.358Z,22.00
2019-04-11T06:01:22.432Z,22.48
2019-04-11T06:03:55.530Z,24.63
2019-04-11T06:06:40.062Z,22.27
2019-04-11T06:09:13.335Z,21.57
2019-04-11T06:11:52.131Z,23.75
2019-04-11T06:14:25.526Z,22.20
2019-04-11T06:16:59.181Z,18.73
2019-04-11T06:19:50.225Z,22.55
2019-04-11T06:22:21.374Z,22.93
2019-04-11T06:25:00.587Z,21.55
2019-04-11T06:27:34.152Z,21.10
2019-04-11T06:30:26.361Z,21.65
2019-04-11T06:33:16.384Z,19.20
2019-04-11T06:36:04.975Z,22.13
2019-04-11T06:38:40.740Z,20.52
2019-04-11T06:41:26.360Z,20.17
2019-04-11T06:44:00.526Z,21.02
2019-04-11T06:46:55.885Z,22.60
2019-04-11T06:49:31.534Z,21.70
2019-04-11T06:52:10.696Z,19.25
2019-04-11T06:54:56.569Z,20.27
2019-04-11T06:57:32.121Z,20.00
2019-04-11T07:00:05.149Z,20.57
2019-04-11T07:02:38.847Z,18.62
2019-04-11T07:05:13.941Z,21.17
2019-04-11T07:07:46.557Z,19.35
2019-04-11T07:10:20.246Z,20.40
2019-04-11T07:12:59.377Z,28.20
2019-04-11T07:15:33.145Z,22.87
2019-04-11T07:18:22.541Z,20.08
2019-04-11T07:20:58.583Z,20.77
2019-04-11T07:23:47.295Z,21.65
2019-04-11T07:26:18.898Z,25.57
2019-04-11T07:28:57.230Z,22.77
2019-04-11T07:31:39.735Z,19.12
2019-04-11T07:34:14.672Z,19.10
2019-04-11T07:37:04.559Z,19.75
2019-04-11T07:39:42.601Z,20.40
2019-04-11T07:42:30.980Z,21.25
2019-04-11T07:45:13.033Z,22.32
2019-04-11T07:47:56.762Z,21.97
2019-04-11T07:50:27.752Z,21.25
2019-04-11T07:53:03.144Z,20.32
2019-04-11T07:55:34.491Z,20.00
2019-04-11T07:58:21.759Z,30.62
2019-04-11T08:01:10.703Z,23.45
2019-04-11T08:03:56.444Z,20.40
2019-04-11T08:06:47.889Z,20.70
2019-04-11T08:09:35.802Z,20.55
2019-04-11T08:12:08.730Z,19.50
2019-04-11T08:14:47.273Z,20.17
2019-04-11T08:17:30.920Z,20.40
2019-04-11T08:20:13.170Z,21.25
2019-04-11T08:22:45.739Z,21.37
2019-04-11T08:25:25.333Z,21.35
2019-04-11T08:28:01.265Z,21.27
2019-04-11T08:30:43.954Z,21.73
2019-04-11T08:33:16.351Z,22.70
2019-04-11T08:35:51.239Z,24.67
2019-04-11T08:38:24.693Z,20.52
2019-04-11T08:41:13.531Z,22.58
2019-04-11T08:43:45.575Z,21.75
2019-04-11T08:46:18.494Z,23.30
2019-04-11T08:49:07.677Z,21.60
2019-04-11T08:51:39.111Z,22.40
2019-04-11T08:54:27.555Z,22.40
2019-04-11T08:56:59.121Z,23.32
2019-04-11T08:59:46.551Z,23.47
2019-04-11T09:02:18.539Z,23.05
2019-04-11T09:05:04.945Z,21.40
2019-04-11T09:07:38.208Z,23.18
2019-04-11T09:10:26.820Z,23.00
2019-04-11T09:13:00.557Z,21.97
2019-04-11T09:15:50.827Z,24.00
2019-04-11T09:18:21.883Z,23.52
2019-04-11T09:20:56.003Z,24.60
2019-04-11T09:23:28.040Z,23.70
2019-04-11T09:25:59.423Z,24.05
2019-04-11T09:28:35.615Z,25.57
2019-04-11T09:31:10.591Z,26.35
2019-04-11T09:33:41.448Z,26.45
2019-04-11T09:36:30.648Z,25.23
2019-04-11T09:39:19.323Z,26.27
2019-04-11T09:42:07.771Z,26.48
2019-04-11T09:44:47.118Z,26.40
2019-04-11T09:47:22.391Z,26.55
2019-04-11T09:50:02.236Z,26.70
2019-04-11T09:52:37.583Z,25.95
2019-04-11T09:55:21.396Z,56.75
2019-04-11T09:57:54.625Z,28.57
2019-04-11T10:00:43.284Z,26.75
2019-04-11T10:03:15.839Z,28.67
2019-04-11T10:05:51.718Z,28.50
2019-04-11T10:08:24.588Z,29.77
2019-04-11T10:11:13.579Z,29.42
2019-04-11T10:13:44.936Z,28.02
2019-04-11T10:16:17.949Z,29.67
2019-04-11T10:18:49.498Z,28.35
2019-04-11T10:21:23.015Z,28.15
2019-04-11T10:24:09.511Z,29.25
2019-04-11T10:26:42.375Z,28.07
2019-04-11T10:29:26.022Z,28.65
2019-04-11T10:31:59.037Z,27.30
2019-04-11T10:34:33.279Z,26.70
2019-04-11T10:37:05.057Z,28.10
2019-04-11T10:39:37.593Z,28.90
2019-04-11T10:42:14.667Z,28.57
2019-04-11T10:45:04.516Z,31.10
2019-04-11T10:47:37.169Z,28.15
2019-04-11T10:50:11.150Z,27.60
2019-04-11T10:52:55.004Z,28.50
2019-04-11T10:55:44.131Z,30.48
2019-04-11T10:58:16.721Z,29.92
2019-04-11T11:00:55.679Z,28.45
2019-04-11T11:03:45.905Z,30.92
2019-04-11T11:06:18.437Z,30.92
2019-04-11T11:08:50.990Z,32.77
2019-04-11T11:11:30.369Z,32.57
2019-04-11T11:14:10.223Z,32.60
2019-04-11T11:16:52.780Z,34.65
2019-04-11T11:19:55.160Z,33.97
2019-04-11T11:22:15.289Z,34.80
2019-04-11T11:25:03.653Z,34.80
2019-04-11T11:27:36.171Z,36.90
2019-04-11T11:30:25.565Z,37.83
2019-04-11T11:32:56.518Z,38.00
2019-04-11T11:35:32.323Z,37.13
2019-04-11T11:38:03.923Z,62.55
2019-04-11T11:40:39.200Z,41.18
2019-04-11T11:43:21.737Z,40.45
2019-04-11T11:46:03.967Z,36.98
2019-04-11T11:48:35.521Z,38.02
2019-04-11T11:51:27.027Z,41.80
2019-04-11T11:54:11.521Z,37.78
2019-04-11T11:56:44.520Z,37.50
2019-04-11T11:59:15.278Z,39.60
2019-04-11T12:01:52.760Z,38.15
2019-04-11T12:04:42.247Z,41.18
2019-04-11T12:07:23.712Z,40.92
2019-04-11T12:10:09.094Z,38.33
2019-04-11T12:12:48.358Z,38.35
2019-04-11T12:15:37.323Z,38.38
2019-04-11T12:18:24.722Z,37.58
2019-04-11T12:21:01.031Z,37.45
2019-04-11T12:23:46.435Z,74.53
2019-04-11T12:26:12.290Z,40.12
2019-04-11T12:28:52.153Z,39.90
2019-04-11T12:31:25.985Z,40.28
2019-04-11T12:34:14.682Z,39.78
2019-04-11T12:36:50.135Z,39.45
2019-04-11T12:39:29.756Z,39.83
2019-04-11T12:42:05.379Z,38.23
2019-04-11T12:44:46.736Z,40.15
2019-04-11T12:47:22.267Z,43.20
2019-04-11T12:49:53.523Z,39.20
2019-04-11T12:52:42.240Z,39.75
2019-04-11T12:55:20.838Z,41.75
2019-04-11T12:58:03.256Z,49.33
2019-04-11T13:00:51.487Z,44.08
2019-04-11T13:03:29.981Z,42.98
2019-04-11T13:06:18.336Z,40.98
2019-04-11T13:09:06.870Z,41.92
2019-04-11T13:11:39.393Z,41.58
2019-04-11T13:14:14.624Z,42.20
2019-04-11T13:16:56.215Z,41.55
2019-04-11T13:19:44.939Z,40.70
2019-04-11T13:22:23.279Z,43.30
2019-04-11T13:25:09.062Z,43.55
2019-04-11T13:27:41.591Z,43.08
2019-04-11T13:30:30.145Z,42.48
2019-04-11T13:33:01.100Z,39.35
2019-04-11T13:35:49.742Z,43.50
2019-04-11T13:38:22.272Z,42.45
2019-04-11T13:41:08.318Z,44.65
2019-04-11T13:43:43.622Z,45.00
2019-04-11T13:46:32.178Z,41.68
2019-04-11T13:49:20.772Z,42.73
2019-04-11T13:51:53.159Z,44.75
2019-04-11T13:54:34.438Z,42.23
2019-04-11T13:57:22.502Z,41.48
2019-04-11T14:00:09.930Z,43.25
2019-04-11T14:02:52.545Z,48.98
2019-04-11T14:05:23.544Z,62.90
2019-04-11T14:07:56.092Z,42.17
2019-04-11T14:10:27.146Z,42.30
2019-04-11T14:13:01.068Z,40.08
2019-04-11T14:15:31.888Z,43.35
2019-04-11T14:18:04.908Z,42.53
2019-04-11T14:20:36.812Z,43.45
2019-04-11T14:23:13.850Z,41.45
2019-04-11T14:26:01.965Z,41.88
2019-04-11T14:28:43.313Z,44.77
2019-04-11T14:31:31.887Z,40.35
2019-04-11T14:34:11.626Z,43.02
2019-04-11T14:37:16.745Z,46.40
2019-04-11T14:39:49.295Z,39.88
2019-04-11T14:42:33.650Z,41.15
2019-04-11T14:45:07.609Z,41.25
2019-04-11T14:47:39.299Z,43.52
2019-04-11T14:50:12.563Z,42.30
2019-04-11T14:52:59.863Z,42.23
2019-04-11T14:55:31.190Z,45.92
2019-04-11T14:58:03.894Z,44.85
2019-04-11T15:00:36.374Z,45.52
2019-04-11T15:03:11.613Z,40.73
2019-04-11T15:05:46.899Z,43.10
2019-04-11T15:08:19.445Z,42.40
2019-04-11T15:10:54.705Z,41.50
2019-04-11T15:13:27.257Z,43.80
2019-04-11T15:16:12.819Z,44.18
2019-04-11T15:18:45.362Z,43.52
2019-04-11T15:21:17.913Z,42.80
2019-04-11T15:23:48.859Z,53.87
2019-04-11T15:26:30.393Z,43.95
2019-04-11T15:29:02.903Z,44.08
2019-04-11T15:31:39.619Z,42.60
2019-04-11T15:34:19.605Z,45.45
2019-04-11T15:36:58.522Z,44.13
2019-04-11T15:39:44.703Z,40.52
2019-04-11T15:42:16.080Z,42.17
2019-04-11T15:45:04.539Z,41.75
2019-04-11T15:47:37.089Z,43.85
2019-04-11T15:50:26.018Z,45.63
2019-04-11T15:52:58.570Z,81.65
2019-04-11T15:55:37.719Z,49.67
2019-04-11T15:58:12.513Z,48.83
2019-04-11T16:00:55.426Z,44.95
2019-04-11T16:03:26.399Z,43.33
2019-04-11T16:06:04.858Z,44.18
2019-04-11T16:08:39.494Z,42.60
2019-04-11T16:11:27.307Z,47.25
2019-04-11T16:14:08.896Z,47.08
2019-04-11T16:16:47.174Z,44.80
2019-04-11T16:19:34.347Z,45.78
2019-04-11T16:22:18.905Z,44.00
2019-04-11T16:24:55.982Z,43.23
2019-04-11T16:27:28.750Z,41.08
2019-04-11T16:30:07.926Z,42.10
2019-04-11T16:32:41.503Z,46.37
2019-04-11T16:35:14.033Z,44.63
2019-04-11T16:37:47.856Z,45.70
2019-04-11T16:40:36.664Z,41.88
2019-04-11T16:43:09.256Z,43.15
2019-04-11T16:45:45.918Z,45.08
2019-04-11T16:48:16.940Z,43.17
2019-04-11T16:50:47.920Z,48.17
2019-04-11T16:53:18.856Z,43.98
2019-04-11T16:55:49.827Z,44.80
2019-04-11T16:58:20.791Z,43.87
2019-04-11T17:00:52.604Z,45.58
2019-04-11T17:03:25.123Z,46.70
2019-04-11T17:06:04.903Z,45.52
2019-04-11T17:08:40.305Z,46.42
2019-04-11T17:11:12.850Z,44.45
2019-04-11T17:13:43.796Z,45.25
2019-04-11T17:16:15.638Z,46.98
2019-04-11T17:18:47.610Z,46.77
2019-04-11T17:21:18.574Z,50.65
2019-04-11T17:23:49.544Z,45.75
2019-04-11T17:26:22.923Z,46.08
2019-04-11T17:28:54.512Z,43.95
2019-04-11T17:31:26.554Z,44.73
2019-04-11T17:34:01.466Z,47.90
2019-04-11T17:36:33.571Z,49.48
2019-04-11T17:39:07.039Z,50.10
2019-04-11T17:41:41.854Z,46.00
2019-04-11T17:44:10.905Z,48.38
2019-04-11T17:46:41.874Z,46.45
2019-04-11T17:49:12.852Z,44.58
2019-04-11T17:51:55.017Z,45.25
2019-04-11T17:54:16.481Z,42.13
2019-04-11T17:56:47.451Z,46.42
2019-04-11T17:59:18.429Z,43.60
2019-04-11T18:01:49.366Z,43.05
2019-04-11T18:04:20.352Z,43.85
2019-04-11T18:06:51.299Z,44.15
2019-04-11T18:09:25.556Z,44.55
2019-04-11T18:11:56.224Z,44.50
2019-04-11T18:14:30.870Z,42.90
2019-04-11T18:17:03.770Z,43.00
2019-04-11T18:19:36.262Z,40.30
2019-04-11T18:22:08.425Z,44.33
2019-04-11T18:24:39.780Z,42.20
2019-04-11T18:27:10.892Z,42.13
2019-04-11T18:29:41.855Z,42.40
2019-04-11T18:32:12.804Z,41.25
2019-04-11T18:34:43.766Z,42.10
2019-04-11T18:37:14.710Z,42.35
2019-04-11T18:39:45.696Z,44.83
2019-04-11T18:42:16.671Z,43.38
2019-04-11T18:44:47.640Z,40.92
2019-04-11T18:47:18.615Z,43.80
2019-04-11T18:49:50.996Z,43.60
2019-04-11T18:52:24.801Z,42.50
2019-04-11T18:54:54.898Z,38.20
2019-04-11T18:57:25.884Z,38.33
2019-04-11T18:59:56.833Z,38.00
2019-04-11T19:02:27.808Z,34.40
2019-04-11T19:04:58.748Z,34.10
2019-04-11T19:07:29.737Z,36.50
2019-04-11T19:10:00.678Z,33.75
2019-04-11T19:12:31.683Z,34.30
2019-04-11T19:15:02.624Z,34.98
2019-04-11T19:17:33.600Z,34.40
2019-04-11T19:20:06.048Z,31.23
2019-04-11T19:22:38.446Z,31.75
2019-04-11T19:25:11.822Z,32.85
2019-04-11T19:27:42.587Z,31.27
2019-04-11T19:30:13.775Z,32.75
2019-04-11T19:32:44.755Z,30.95
2019-04-11T19:35:15.692Z,29.32
2019-04-11T19:37:46.661Z,30.55
2019-04-11T19:40:17.600Z,31.30
2019-04-11T19:42:49.095Z,31.15
2019-04-11T19:45:20.833Z,31.45
2019-04-11T19:47:52.282Z,32.03
2019-04-11T19:50:26.770Z,30.80
2019-04-11T19:52:57.575Z,31.87
2019-04-11T19:55:46.186Z,30.65
2019-04-11T19:58:19.633Z,31.17
2019-04-11T20:00:53.013Z,31.87
2019-04-11T20:03:24.160Z,30.85
2019-04-11T20:05:55.724Z,31.15
2019-04-11T20:08:26.665Z,28.92
2019-04-11T20:11:01.087Z,30.27
2019-04-11T20:13:32.309Z,32.40
2019-04-11T20:16:02.932Z,30.15
2019-04-11T20:18:33.881Z,30.57
2019-04-11T20:21:07.190Z,29.57
2019-04-11T20:23:41.392Z,26.90
2019-04-11T20:26:10.443Z,27.77
2019-04-11T20:28:41.385Z,27.17
2019-04-11T20:31:12.434Z,28.38
2019-04-11T20:33:43.377Z,29.63
2019-04-11T20:36:14.349Z,28.80
2019-04-11T20:38:46.310Z,28.32
2019-04-11T20:41:17.353Z,28.92
2019-04-11T20:43:48.289Z,28.62
2019-04-11T20:46:19.256Z,26.82
2019-04-11T20:48:50.202Z,29.82
2019-04-11T20:51:21.205Z,27.20
2019-04-11T20:53:52.148Z,29.37
2019-04-11T20:56:24.463Z,27.98
2019-04-11T20:58:55.538Z,26.35
2019-04-11T21:01:26.835Z,28.27
2019-04-11T21:04:00.020Z,27.98
2019-04-11T21:06:32.076Z,28.75
2019-04-11T21:09:03.674Z,28.92
2019-04-11T21:11:37.200Z,27.37
2019-04-11T21:14:08.313Z,27.25
2019-04-11T21:16:40.297Z,29.05
2019-04-11T21:19:12.288Z,28.90
2019-04-11T21:21:43.315Z,27.93
2019-04-11T21:24:14.285Z,25.88
2019-04-11T21:26:45.244Z,30.77
2019-04-11T21:29:16.215Z,27.27
2019-04-11T21:31:47.159Z,29.35
2019-04-11T21:34:18.167Z,28.87
2019-04-11T21:36:49.097Z,28.17
2019-04-11T21:39:20.069Z,27.32
2019-04-11T21:41:51.081Z,28.47
2019-04-11T21:44:22.055Z,27.25
2019-04-11T21:46:52.991Z,27.35
2019-04-11T21:49:23.968Z,29.70
2019-04-11T21:51:54.906Z,28.57
2019-04-11T21:54:25.880Z,28.95
2019-04-11T21:56:56.888Z,28.05
2019-04-11T21:59:27.861Z,25.65
2019-04-11T22:01:59.099Z,26.87
2019-04-11T22:04:31.669Z,28.00
2019-04-11T22:07:02.611Z,27.05
2019-04-11T22:09:35.548Z,25.70
2019-04-11T22:12:08.125Z,25.75
2019-04-11T22:14:41.348Z,28.77
2019-04-11T22:17:15.035Z,28.30
2019-04-11T22:19:45.837Z,28.20
2019-04-11T22:22:16.827Z,27.62
2019-04-11T22:24:47.794Z,26.95
2019-04-11T22:27:22.033Z,29.15
2019-04-11T22:29:54.995Z,27.17
2019-04-11T22:32:25.858Z,27.05
2019-04-11T22:34:56.774Z,25.55
2019-04-11T22:37:30.093Z,28.52
2019-04-11T22:40:02.085Z,26.73
2019-04-11T22:42:33.623Z,28.87
2019-04-11T22:45:05.881Z,26.77
2019-04-11T22:47:38.919Z,26.97
2019-04-11T22:50:10.727Z,25.97
2019-04-11T22:52:42.216Z,26.40
2019-04-11T22:55:14.828Z,25.17
2019-04-11T22:57:45.769Z,28.65
2019-04-11T23:00:16.751Z,25.52
2019-04-11T23:02:52.039Z,27.13
2019-04-11T23:05:23.017Z,27.50
2019-04-11T23:07:53.985Z,26.97
2019-04-11T23:10:24.924Z,27.37
2019-04-11T23:12:55.900Z,29.15
2019-04-11T23:15:26.845Z,28.60
2019-04-11T23:17:57.822Z,28.65
2019-04-11T23:20:28.762Z,29.70
2019-04-11T23:22:59.735Z,28.98
2019-04-11T23:25:30.878Z,28.52
2019-04-11T23:28:01.922Z,31.75
2019-04-11T23:30:32.867Z,29.40
2019-04-11T23:33:03.827Z,28.42
2019-04-11T23:35:34.762Z,30.48
2019-04-11T23:38:05.738Z,29.30
2019-04-11T23:40:36.673Z,32.65
2019-04-11T23:43:07.648Z,31.68
2019-04-11T23:45:38.587Z,33.85
2019-04-11T23:48:10.559Z,36.13
2019-04-11T23:50:41.494Z,33.40
2019-04-11T23:53:12.455Z,34.08
2019-04-11T23:55:43.395Z,34.63
2019-04-11T23:58:14.363Z,35.75
